createdAt,value
2019-05-23T00:01:41.516Z,99640.69
2019-05-23T00:04:02.745Z,99649.34
2019-05-23T00:06:24.126Z,99647.98
2019-05-23T00:08:44.909Z,99653.39
2019-05-23T00:11:06.175Z,99657.14
2019-05-23T00:13:27.029Z,99650.06
2019-05-23T00:15:47.996Z,99649.22
2019-05-23T00:18:08.737Z,99654.31
2019-05-23T00:20:29.519Z,99651.11
2019-05-23T00:22:50.096Z,99655.17
2019-05-23T00:25:10.530Z,99658.37
2019-05-23T00:27:31.299Z,99654.55
2019-05-23T00:29:51.746Z,99645.08
2019-05-23T00:32:12.642Z,99648.82
2019-05-23T00:34:33.576Z,99644.27
2019-05-23T00:36:54.627Z,99642.59
2019-05-23T00:39:16.229Z,99644.45
2019-05-23T00:41:37.056Z,99654.77
2019-05-23T00:43:58.791Z,99645.30
2019-05-23T00:46:19.132Z,99644.99
2019-05-23T00:48:39.531Z,99638.73
2019-05-23T00:51:00.090Z,99644.99
2019-05-23T00:53:21.147Z,99644.14
2019-05-23T00:55:41.797Z,99646.84
2019-05-23T00:58:02.195Z,99641.16
2019-05-23T01:00:23.707Z,99635.44
2019-05-23T01:02:44.758Z,99634.91
2019-05-23T01:05:05.677Z,99634.40
2019-05-23T01:07:26.459Z,99637.61
2019-05-23T01:09:47.991Z,99632.42
2019-05-23T01:12:09.618Z,99636.48
2019-05-23T01:14:30.175Z,99635.95
2019-05-23T01:16:50.838Z,99635.13
2019-05-23T01:19:12.034Z,99635.95
2019-05-23T01:21:32.715Z,99631.08
2019-05-23T01:23:53.063Z,99625.86
2019-05-23T01:26:14.253Z,99631.08
2019-05-23T01:28:35.047Z,99629.91
2019-05-23T01:30:56.150Z,99633.97
2019-05-23T01:33:16.989Z,99635.86
2019-05-23T01:35:37.483Z,99633.16
2019-05-23T01:37:57.810Z,99632.84
2019-05-23T01:40:18.257Z,99634.20
2019-05-23T01:42:39.063Z,99632.84
2019-05-23T01:44:59.610Z,99632.34
2019-05-23T01:47:19.948Z,99627.44
2019-05-23T01:49:41.328Z,99623.38
2019-05-23T01:52:02.758Z,99621.72
2019-05-23T01:54:24.246Z,99629.02
2019-05-23T01:56:45.314Z,99631.49
2019-05-23T01:59:06.011Z,99623.91
2019-05-23T02:01:27.217Z,99620.36
2019-05-23T02:03:48.339Z,99620.90
2019-05-23T02:06:09.190Z,99621.41
2019-05-23T02:08:30.481Z,99624.95
2019-05-23T02:10:52.030Z,99623.80
2019-05-23T02:13:13.535Z,99625.15
2019-05-23T02:15:34.524Z,99626.81
2019-05-23T02:17:55.514Z,99625.15
2019-05-23T02:20:16.903Z,99621.63
2019-05-23T02:22:37.944Z,99623.30
2019-05-23T02:24:58.744Z,99622.45
2019-05-23T02:27:19.665Z,99619.74
2019-05-23T02:29:40.091Z,99624.33
2019-05-23T02:32:01.131Z,99615.91
2019-05-23T02:34:21.672Z,99615.91
2019-05-23T02:36:42.636Z,99617.58
2019-05-23T02:39:03.497Z,99615.09
2019-05-23T02:41:24.173Z,99612.39
2019-05-23T02:43:45.148Z,99615.09
2019-05-23T02:46:05.638Z,99601.58
2019-05-23T02:48:26.523Z,99611.55
2019-05-23T02:50:47.342Z,99606.67
2019-05-23T02:53:08.638Z,99602.39
2019-05-23T02:55:29.618Z,99602.62
2019-05-23T02:57:50.557Z,99602.92
2019-05-23T03:00:10.852Z,99601.27
2019-05-23T03:02:31.650Z,99601.58
2019-05-23T03:04:52.392Z,99601.58
2019-05-23T03:07:13.376Z,99600.73
2019-05-23T03:09:34.465Z,99595.63
2019-05-23T03:11:55.528Z,99596.17
2019-05-23T03:14:16.713Z,99597.52
2019-05-23T03:16:37.819Z,99587.75
2019-05-23T03:18:58.283Z,99593.47
2019-05-23T03:21:18.998Z,99592.11
2019-05-23T03:23:39.583Z,99587.20
2019-05-23T03:26:00.448Z,99585.05
2019-05-23T03:28:20.803Z,99587.20
2019-05-23T03:30:41.209Z,99592.62
2019-05-23T03:33:02.127Z,99591.27
2019-05-23T03:35:23.205Z,99591.80
2019-05-23T03:37:43.699Z,99594.20
2019-05-23T03:40:04.109Z,99595.01
2019-05-23T03:42:25.855Z,99593.66
2019-05-23T03:44:46.757Z,99591.80
2019-05-23T03:47:07.437Z,99591.48
2019-05-23T03:49:28.589Z,99590.95
2019-05-23T03:51:49.490Z,99594.20
2019-05-23T03:54:10.077Z,99592.31
2019-05-23T03:56:30.681Z,99588.79
2019-05-23T03:58:51.051Z,99594.20
2019-05-23T04:01:12.152Z,99594.20
2019-05-23T04:03:32.909Z,99590.14
2019-05-23T04:05:53.919Z,99590.95
2019-05-23T04:08:14.674Z,99586.55
2019-05-23T04:10:35.404Z,99587.52
2019-05-23T04:12:56.441Z,99593.77
2019-05-23T04:15:17.354Z,99596.76
2019-05-23T04:17:38.253Z,99590.31
2019-05-23T04:19:58.933Z,99593.63
2019-05-23T04:22:20.564Z,99598.00
2019-05-23T04:24:42.072Z,99601.10
2019-05-23T04:27:02.713Z,99600.59
2019-05-23T04:29:23.670Z,99601.49
2019-05-23T04:31:45.176Z,99600.14
2019-05-23T04:34:05.731Z,99596.17
2019-05-23T04:36:27.206Z,99599.95
2019-05-23T04:38:48.825Z,99598.06
2019-05-23T04:41:09.875Z,99599.72
2019-05-23T04:43:30.307Z,99599.72
2019-05-23T04:45:51.187Z,99601.38
2019-05-23T04:48:11.963Z,99600.84
2019-05-23T04:50:32.904Z,99596.78
2019-05-23T04:52:53.665Z,99597.41
2019-05-23T04:55:14.065Z,99602.51
2019-05-23T04:57:34.443Z,99603.66
2019-05-23T04:59:55.393Z,99592.84
2019-05-23T05:02:26.505Z,99597.72
2019-05-23T05:04:38.651Z,99595.23
2019-05-23T05:06:59.774Z,99598.79
2019-05-23T05:09:20.972Z,99602.70
2019-05-23T05:11:41.358Z,99601.56
2019-05-23T05:14:02.601Z,99608.57
2019-05-23T05:16:23.199Z,99608.91
2019-05-23T05:18:43.723Z,99604.02
2019-05-23T05:21:04.614Z,99605.19
2019-05-23T05:23:25.823Z,99614.25
2019-05-23T05:25:47.234Z,99607.09
2019-05-23T05:28:08.449Z,99613.95
2019-05-23T05:30:29.311Z,99605.75
2019-05-23T05:32:50.470Z,99617.51
2019-05-23T05:35:11.683Z,99605.14
2019-05-23T05:37:32.107Z,99611.30
2019-05-23T05:39:52.944Z,99605.77
2019-05-23T05:42:13.496Z,99613.56
2019-05-23T05:44:33.967Z,99610.58
2019-05-23T05:46:54.437Z,99615.14
2019-05-23T05:49:15.265Z,99619.28
2019-05-23T05:51:36.026Z,99610.19
2019-05-23T05:53:57.455Z,99621.48
2019-05-23T05:56:18.164Z,99624.91
2019-05-23T05:58:39.310Z,99623.78
2019-05-23T06:00:59.994Z,99626.70
2019-05-23T06:03:20.713Z,99628.46
2019-05-23T06:05:41.686Z,99629.19
2019-05-23T06:08:02.404Z,99630.72
2019-05-23T06:10:23.028Z,99628.96
2019-05-23T06:12:43.889Z,99625.64
2019-05-23T06:15:04.842Z,99629.38
2019-05-23T06:17:25.957Z,99630.94
2019-05-23T06:19:46.679Z,99634.67
2019-05-23T06:22:07.505Z,99633.33
2019-05-23T06:24:42.841Z,99636.53
2019-05-23T06:26:49.947Z,99637.78
2019-05-23T06:29:11.287Z,99635.13
2019-05-23T06:31:32.432Z,99632.07
2019-05-23T06:33:53.397Z,99636.84
2019-05-23T06:36:14.958Z,99638.95
2019-05-23T06:38:36.020Z,99641.52
2019-05-23T06:40:59.265Z,99642.97
2019-05-23T06:43:20.068Z,99638.50
2019-05-23T06:45:42.897Z,99638.27
2019-05-23T06:48:03.422Z,99637.33
2019-05-23T06:50:23.772Z,99642.23
2019-05-23T06:52:44.694Z,99638.08
2019-05-23T06:55:06.114Z,99646.47
2019-05-23T06:57:26.724Z,99642.22
2019-05-23T06:59:47.747Z,99644.20
2019-05-23T07:02:09.676Z,99648.84
2019-05-23T07:04:31.031Z,99647.81
2019-05-23T07:06:51.776Z,99644.61
2019-05-23T07:09:12.709Z,99646.27
2019-05-23T07:11:33.849Z,99647.08
2019-05-23T07:13:54.649Z,99639.28
2019-05-23T07:16:15.385Z,99640.95
2019-05-23T07:18:35.742Z,99636.36
2019-05-23T07:20:56.782Z,99637.21
2019-05-23T07:23:17.057Z,99642.08
2019-05-23T07:25:37.402Z,99643.20
2019-05-23T07:27:58.475Z,99644.05
2019-05-23T07:30:19.690Z,99652.16
2019-05-23T07:32:40.195Z,99650.59
2019-05-23T07:35:00.959Z,99648.20
2019-05-23T07:37:22.113Z,99648.52
2019-05-23T07:39:42.889Z,99642.60
2019-05-23T07:42:05.932Z,99645.90
2019-05-23T07:44:27.177Z,99644.05
2019-05-23T07:46:47.840Z,99641.34
2019-05-23T07:49:08.928Z,99644.66
2019-05-23T07:51:29.925Z,99647.14
2019-05-23T07:53:50.796Z,99646.61
2019-05-23T07:56:12.074Z,99643.18
2019-05-23T07:58:32.451Z,99639.66
2019-05-23T08:00:52.911Z,99638.39
2019-05-23T08:03:14.030Z,99641.41
2019-05-23T08:05:34.839Z,99638.70
2019-05-23T08:07:55.605Z,99634.97
2019-05-23T08:10:32.480Z,99635.05
2019-05-23T08:12:38.857Z,99638.26
2019-05-23T08:14:59.895Z,99630.45
2019-05-23T08:17:20.782Z,99639.11
2019-05-23T08:19:49.512Z,99635.87
2019-05-23T08:22:03.885Z,99639.11
2019-05-23T08:24:24.633Z,99637.02
2019-05-23T08:26:45.115Z,99638.47
2019-05-23T08:29:24.901Z,99645.45
2019-05-23T08:31:27.859Z,99639.82
2019-05-23T08:33:48.432Z,99640.63
2019-05-23T08:36:08.764Z,99636.58
2019-05-23T08:38:29.629Z,99636.42
2019-05-23T08:40:50.517Z,99639.94
2019-05-23T08:43:11.257Z,99632.36
2019-05-23T08:45:32.273Z,99629.97
2019-05-23T08:47:53.418Z,99637.77
2019-05-23T08:50:13.927Z,99638.39
2019-05-23T08:52:35.776Z,99631.62
2019-05-23T08:54:57.067Z,99634.61
2019-05-23T08:57:18.917Z,99627.85
2019-05-23T08:59:41.717Z,99624.11
2019-05-23T09:02:02.843Z,99631.18
2019-05-23T09:04:24.397Z,99623.06
2019-05-23T09:06:45.605Z,99626.63
2019-05-23T09:09:27.822Z,99624.73
2019-05-23T09:11:29.176Z,99624.73
2019-05-23T09:13:50.444Z,99625.86
2019-05-23T09:16:11.651Z,99624.51
2019-05-23T09:18:33.093Z,99621.30
2019-05-23T09:20:53.710Z,99621.52
2019-05-23T09:23:14.750Z,99613.27
2019-05-23T09:25:35.170Z,99615.35
2019-05-23T09:27:55.728Z,99622.73
2019-05-23T09:30:17.033Z,99615.24
2019-05-23T09:32:38.833Z,99611.19
2019-05-23T09:34:59.511Z,99618.88
2019-05-23T09:37:20.107Z,99616.17
2019-05-23T09:39:40.570Z,99613.97
2019-05-23T09:42:01.667Z,99614.28
2019-05-23T09:44:22.530Z,99612.20
2019-05-23T09:46:43.142Z,99611.47
2019-05-23T09:49:04.562Z,99611.24
2019-05-23T09:51:25.678Z,99607.07
2019-05-23T09:53:47.805Z,99609.33
2019-05-23T09:56:09.308Z,99601.29
2019-05-23T09:58:30.243Z,99601.72
2019-05-23T10:00:51.444Z,99598.47
2019-05-23T10:03:12.676Z,99597.43
2019-05-23T10:05:42.948Z,99597.43
2019-05-23T10:07:55.489Z,99597.73
2019-05-23T10:10:16.631Z,99597.94
2019-05-23T10:12:37.557Z,99593.06
2019-05-23T10:14:59.207Z,99596.81
2019-05-23T10:17:20.380Z,99589.54
2019-05-23T10:19:41.756Z,99588.19
2019-05-23T10:22:02.511Z,99585.67
2019-05-23T10:24:24.289Z,99583.59
2019-05-23T10:26:45.693Z,99573.58
2019-05-23T10:29:06.941Z,99573.89
2019-05-23T10:31:28.280Z,99566.63
2019-05-23T10:33:49.147Z,99570.69
2019-05-23T10:36:09.966Z,99569.09
2019-05-23T10:38:30.686Z,99566.70
2019-05-23T10:40:51.474Z,99567.02
2019-05-23T10:43:12.535Z,99563.77
2019-05-23T10:45:34.431Z,99562.41
2019-05-23T10:47:55.219Z,99560.87
2019-05-23T10:50:16.489Z,99561.17
2019-05-23T10:52:37.689Z,99559.28
2019-05-23T10:54:59.472Z,99556.58
2019-05-23T10:57:20.747Z,99547.72
2019-05-23T10:59:41.745Z,99550.94
2019-05-23T11:02:02.019Z,99541.69
2019-05-23T11:04:23.647Z,99540.34
2019-05-23T11:06:44.241Z,99536.59
2019-05-23T11:09:05.334Z,99540.73
2019-05-23T11:11:26.258Z,99537.20
2019-05-23T11:13:49.237Z,99534.81
2019-05-23T11:16:09.982Z,99530.75
2019-05-23T11:18:31.018Z,99528.05
2019-05-23T11:20:52.014Z,99522.94
2019-05-23T11:23:12.755Z,99520.00
2019-05-23T11:25:33.483Z,99519.70
2019-05-23T11:27:54.731Z,99520.52
2019-05-23T11:30:16.261Z,99521.86
2019-05-23T11:32:37.077Z,99521.36
2019-05-23T11:34:58.236Z,99522.17
2019-05-23T11:37:18.759Z,99524.98
2019-05-23T11:39:49.752Z,99523.70
2019-05-23T11:42:02.414Z,99519.11
2019-05-23T11:44:22.875Z,99521.92
2019-05-23T11:46:44.045Z,99521.39
2019-05-23T11:49:05.029Z,99515.97
2019-05-23T11:51:26.309Z,99517.94
2019-05-23T11:54:05.433Z,99510.71
2019-05-23T11:56:09.427Z,99513.83
2019-05-23T11:58:32.595Z,99510.59
2019-05-23T12:00:52.196Z,99505.78
2019-05-23T12:03:13.131Z,99502.11
2019-05-23T12:05:34.258Z,99502.45
2019-05-23T12:07:54.499Z,99508.47
2019-05-23T12:10:14.887Z,99502.75
2019-05-23T12:12:35.635Z,99496.05
2019-05-23T12:14:56.461Z,99494.77
2019-05-23T12:17:17.365Z,99493.73
2019-05-23T12:19:42.668Z,99488.55
2019-05-23T12:22:03.875Z,99493.12
2019-05-23T12:24:24.659Z,99494.03
2019-05-23T12:26:45.817Z,99495.26
2019-05-23T12:29:06.850Z,99481.48
2019-05-23T12:31:27.433Z,99486.97
2019-05-23T12:33:48.585Z,99481.56
2019-05-23T12:36:12.196Z,99480.44
2019-05-23T12:38:33.405Z,99475.02
2019-05-23T12:40:56.751Z,99478.03
2019-05-23T12:43:18.872Z,99473.67
2019-05-23T12:45:40.128Z,99480.75
2019-05-23T12:48:00.505Z,99481.05
2019-05-23T12:50:23.803Z,99470.73
2019-05-23T12:52:44.416Z,99468.86
2019-05-23T12:55:05.838Z,99468.56
2019-05-23T12:57:26.812Z,99462.09
2019-05-23T12:59:47.524Z,99462.91
2019-05-23T13:02:08.475Z,99456.14
2019-05-23T13:04:29.881Z,99461.86
2019-05-23T13:06:50.881Z,99460.74
2019-05-23T13:09:11.683Z,99464.88
2019-05-23T13:11:32.229Z,99455.09
2019-05-23T13:13:52.884Z,99450.19
2019-05-23T13:16:14.247Z,99450.48
2019-05-23T13:18:35.324Z,99447.27
2019-05-23T13:20:59.350Z,99445.92
2019-05-23T13:23:21.238Z,99447.88
2019-05-23T13:25:40.412Z,99442.47
2019-05-23T13:28:01.327Z,99445.17
2019-05-23T13:30:22.831Z,99436.75
2019-05-23T13:32:43.940Z,99433.20
2019-05-23T13:35:05.047Z,99435.09
2019-05-23T13:37:25.838Z,99433.42
2019-05-23T13:39:46.275Z,99427.47
2019-05-23T13:42:07.031Z,99432.08
2019-05-23T13:44:34.960Z,99425.91
2019-05-23T13:46:51.429Z,99433.50
2019-05-23T13:49:11.928Z,99422.97
2019-05-23T13:51:33.525Z,99430.05
2019-05-23T13:53:54.683Z,99428.99
2019-05-23T13:56:16.050Z,99423.52
2019-05-23T13:58:37.230Z,99425.61
2019-05-23T14:00:58.586Z,99422.91
2019-05-23T14:03:19.941Z,99423.72
2019-05-23T14:05:41.962Z,99418.09
2019-05-23T14:08:12.387Z,99415.08
2019-05-23T14:10:29.628Z,99415.08
2019-05-23T14:12:50.908Z,99425.44
2019-05-23T14:15:13.586Z,99414.34
2019-05-23T14:17:35.693Z,99406.95
2019-05-23T14:19:57.493Z,99413.42
2019-05-23T14:22:19.103Z,99412.67
2019-05-23T14:24:39.937Z,99409.43
2019-05-23T14:27:00.425Z,99413.49
2019-05-23T14:29:21.747Z,99405.91
2019-05-23T14:31:43.214Z,99408.62
2019-05-23T14:34:04.351Z,99397.86
2019-05-23T14:36:26.003Z,99401.17
2019-05-23T14:38:46.687Z,99404.25
2019-05-23T14:41:07.865Z,99401.75
2019-05-23T14:43:28.995Z,99400.56
2019-05-23T14:45:50.124Z,99402.22
2019-05-23T14:48:12.730Z,99402.97
2019-05-23T14:50:34.740Z,99397.55
2019-05-23T14:52:56.154Z,99399.27
2019-05-23T14:55:16.963Z,99394.47
2019-05-23T14:57:37.720Z,99392.88
2019-05-23T14:59:59.024Z,99391.59
2019-05-23T15:02:19.375Z,99395.95
2019-05-23T15:04:40.288Z,99394.39
2019-05-23T15:07:01.806Z,99391.14
2019-05-23T15:09:22.319Z,99387.08
2019-05-23T15:11:43.908Z,99382.71
2019-05-23T15:14:04.775Z,99397.16
2019-05-23T15:16:25.602Z,99383.86
2019-05-23T15:18:46.447Z,99384.37
2019-05-23T15:21:07.507Z,99387.08
2019-05-23T15:23:28.368Z,99376.78
2019-05-23T15:25:48.678Z,99383.92
2019-05-23T15:28:09.401Z,99378.64
2019-05-23T15:30:30.145Z,99381.34
2019-05-23T15:32:50.773Z,99379.25
2019-05-23T15:35:11.353Z,99377.65
2019-05-23T15:37:31.811Z,99370.44
2019-05-23T15:39:53.075Z,99370.49
2019-05-23T15:42:14.344Z,99370.80
2019-05-23T15:44:34.801Z,99366.52
2019-05-23T15:46:55.685Z,99370.35
2019-05-23T15:49:16.885Z,99364.48
2019-05-23T15:51:37.703Z,99364.00
2019-05-23T15:53:58.766Z,99366.71
2019-05-23T15:56:27.314Z,99362.44
2019-05-23T15:58:41.775Z,99364.09
2019-05-23T16:01:02.479Z,99355.66
2019-05-23T16:03:23.731Z,99359.19
2019-05-23T16:05:45.089Z,99357.02
2019-05-23T16:08:06.033Z,99357.47
2019-05-23T16:10:26.871Z,99354.76
2019-05-23T16:12:47.972Z,99353.04
2019-05-23T16:15:09.239Z,99351.63
2019-05-23T16:17:29.903Z,99360.56
2019-05-23T16:19:51.023Z,99348.07
2019-05-23T16:22:12.140Z,99354.39
2019-05-23T16:24:32.820Z,99351.23
2019-05-23T16:26:54.735Z,99347.45
2019-05-23T16:29:19.223Z,99350.45
2019-05-23T16:31:40.487Z,99343.77
2019-05-23T16:34:06.389Z,99348.11
2019-05-23T16:36:27.448Z,99341.88
2019-05-23T16:38:48.134Z,99339.47
2019-05-23T16:41:11.342Z,99346.00
2019-05-23T16:43:32.017Z,99346.84
2019-05-23T16:45:52.996Z,99345.80
2019-05-23T16:48:14.132Z,99340.13
2019-05-23T16:50:34.867Z,99343.14
2019-05-23T16:52:55.462Z,99343.95
2019-05-23T16:55:16.352Z,99347.51
2019-05-23T16:57:36.791Z,99340.19
2019-05-23T16:59:57.241Z,99345.70
2019-05-23T17:02:17.811Z,99348.32
2019-05-23T17:04:38.877Z,99351.03
2019-05-23T17:06:59.586Z,99347.60
2019-05-23T17:09:20.731Z,99342.99
2019-05-23T17:11:41.899Z,99343.53
2019-05-23T17:14:03.020Z,99342.99
2019-05-23T17:16:24.223Z,99350.91
2019-05-23T17:18:44.635Z,99344.14
2019-05-23T17:21:05.614Z,99343.84
2019-05-23T17:23:26.572Z,99345.41
2019-05-23T17:25:49.218Z,99340.83
2019-05-23T17:28:10.088Z,99346.36
2019-05-23T17:30:30.882Z,99347.02
2019-05-23T17:32:51.598Z,99338.38
2019-05-23T17:35:12.382Z,99338.63
2019-05-23T17:37:33.523Z,99335.61
2019-05-23T17:39:54.229Z,99332.12
2019-05-23T17:42:15.165Z,99328.35
2019-05-23T17:44:35.528Z,99333.56
2019-05-23T17:46:56.246Z,99331.16
2019-05-23T17:49:17.564Z,99326.55
2019-05-23T17:51:38.303Z,99328.45
2019-05-23T17:53:59.091Z,99331.16
2019-05-23T17:56:20.278Z,99325.44
2019-05-23T17:58:41.095Z,99329.80
2019-05-23T18:01:02.264Z,99326.48
2019-05-23T18:03:23.411Z,99322.06
2019-05-23T18:05:44.839Z,99323.51
2019-05-23T18:08:06.557Z,99327.58
2019-05-23T18:10:43.176Z,99327.78
2019-05-23T18:12:50.162Z,99324.86
2019-05-23T18:15:10.950Z,99332.16
2019-05-23T18:17:32.335Z,99325.92
2019-05-23T18:19:53.058Z,99326.43
2019-05-23T18:22:14.492Z,99321.55
2019-05-23T18:24:35.820Z,99323.33
2019-05-23T18:26:57.055Z,99320.11
2019-05-23T18:29:18.486Z,99324.92
2019-05-23T18:31:39.031Z,99324.92
2019-05-23T18:33:59.851Z,99321.10
2019-05-23T18:36:20.494Z,99318.39
2019-05-23T18:38:40.895Z,99318.45
2019-05-23T18:41:04.305Z,99317.34
2019-05-23T18:43:23.616Z,99323.03
2019-05-23T18:45:44.774Z,99320.56
2019-05-23T18:48:05.911Z,99326.43
2019-05-23T18:50:26.903Z,99321.85
2019-05-23T18:52:47.519Z,99324.80
2019-05-23T18:55:08.268Z,99320.95
2019-05-23T18:57:29.128Z,99322.00
2019-05-23T18:59:49.979Z,99324.41
2019-05-23T19:02:10.681Z,99321.94
2019-05-23T19:04:31.589Z,99328.11
2019-05-23T19:06:53.737Z,99323.98
2019-05-23T19:09:15.189Z,99324.23
2019-05-23T19:11:35.946Z,99324.38
2019-05-23T19:13:56.328Z,99328.98
2019-05-23T19:16:17.592Z,99327.33
2019-05-23T19:18:38.031Z,99333.80
2019-05-23T19:20:58.834Z,99333.43
2019-05-23T19:23:19.539Z,99332.38
2019-05-23T19:25:39.943Z,99331.17
2019-05-23T19:28:00.868Z,99333.38
2019-05-23T19:30:21.864Z,99331.72
2019-05-23T19:32:42.635Z,99340.20
2019-05-23T19:35:03.804Z,99342.22
2019-05-23T19:37:24.959Z,99337.68
2019-05-23T19:39:47.000Z,99343.41
2019-05-23T19:42:07.786Z,99344.85
2019-05-23T19:44:28.869Z,99350.54
2019-05-23T19:46:50.111Z,99351.69
2019-05-23T19:49:10.919Z,99353.64
2019-05-23T19:51:32.008Z,99352.80
2019-05-23T19:53:54.200Z,99356.66
2019-05-23T19:56:15.464Z,99362.59
2019-05-23T19:58:36.668Z,99355.52
2019-05-23T20:00:57.423Z,99365.84
2019-05-23T20:03:18.634Z,99365.23
2019-05-23T20:05:39.779Z,99364.99
2019-05-23T20:08:00.490Z,99362.52
2019-05-23T20:10:20.970Z,99361.53
2019-05-23T20:12:41.460Z,99364.78
2019-05-23T20:15:02.882Z,99364.55
2019-05-23T20:17:23.842Z,99364.00
2019-05-23T20:19:44.220Z,99363.25
2019-05-23T20:22:05.415Z,99362.20
2019-05-23T20:24:25.677Z,99362.50
2019-05-23T20:26:46.739Z,99370.94
2019-05-23T20:29:08.087Z,99366.56
2019-05-23T20:31:29.309Z,99364.36
2019-05-23T20:33:50.662Z,99367.98
2019-05-23T20:36:12.693Z,99367.47
2019-05-23T20:38:34.229Z,99371.80
2019-05-23T20:41:07.601Z,99370.99
2019-05-23T20:43:27.920Z,99375.36
2019-05-23T20:45:49.347Z,99373.47
2019-05-23T20:48:11.041Z,99376.48
2019-05-23T20:50:31.406Z,99371.05
2019-05-23T20:52:51.892Z,99374.06
2019-05-23T20:55:12.341Z,99374.94
2019-05-23T20:57:33.330Z,99372.30
2019-05-23T20:59:53.759Z,99370.94
2019-05-23T21:02:14.962Z,99372.30
2019-05-23T21:04:36.110Z,99372.50
2019-05-23T21:06:56.855Z,99364.28
2019-05-23T21:09:17.857Z,99363.98
2019-05-23T21:11:38.942Z,99369.34
2019-05-23T21:13:59.460Z,99366.02
2019-05-23T21:16:20.115Z,99365.45
2019-05-23T21:18:41.020Z,99361.08
2019-05-23T21:21:01.905Z,99365.91
2019-05-23T21:23:22.343Z,99361.77
2019-05-23T21:25:43.615Z,99363.34
2019-05-23T21:28:04.936Z,99366.28
2019-05-23T21:30:25.800Z,99361.92
2019-05-23T21:32:52.315Z,99355.89
2019-05-23T21:35:12.712Z,99354.48
2019-05-23T21:37:33.800Z,99355.02
2019-05-23T21:39:54.452Z,99358.48
2019-05-23T21:42:15.328Z,99357.64
2019-05-23T21:44:36.034Z,99353.51
2019-05-23T21:46:56.997Z,99348.84
2019-05-23T21:49:18.319Z,99348.03
2019-05-23T21:51:39.307Z,99347.97
2019-05-23T21:54:00.921Z,99346.00
2019-05-23T21:56:21.964Z,99350.07
2019-05-23T21:58:42.326Z,99348.92
2019-05-23T22:01:03.579Z,99351.36
2019-05-23T22:03:24.074Z,99358.03
2019-05-23T22:05:44.465Z,99350.75
2019-05-23T22:08:05.833Z,99354.21
2019-05-23T22:10:26.298Z,99351.73
2019-05-23T22:13:03.118Z,99341.42
2019-05-23T22:15:09.317Z,99341.11
2019-05-23T22:17:30.507Z,99340.00
2019-05-23T22:19:51.937Z,99340.00
2019-05-23T22:22:13.563Z,99336.48
2019-05-23T22:24:35.155Z,99339.09
2019-05-23T22:26:55.752Z,99338.28
2019-05-23T22:29:17.135Z,99338.78
2019-05-23T22:31:37.828Z,99337.67
2019-05-23T22:33:58.813Z,99337.91
2019-05-23T22:36:19.826Z,99339.77
2019-05-23T22:38:41.552Z,99340.61
2019-05-23T22:41:02.592Z,99338.12
2019-05-23T22:43:23.894Z,99328.06
2019-05-23T22:45:44.655Z,99332.63
2019-05-23T22:48:06.095Z,99333.17
2019-05-23T22:50:26.979Z,99330.16
2019-05-23T22:52:48.051Z,99330.67
2019-05-23T22:55:09.703Z,99327.39
2019-05-23T22:57:30.459Z,99337.14
2019-05-23T22:59:51.388Z,99332.50
2019-05-23T23:02:12.163Z,99333.86
2019-05-23T23:04:32.986Z,99332.20
2019-05-23T23:06:53.581Z,99326.98
2019-05-23T23:09:14.672Z,99331.05
2019-05-23T23:11:35.508Z,99329.19
2019-05-23T23:13:56.394Z,99325.64
2019-05-23T23:16:17.477Z,99328.58
2019-05-23T23:18:38.681Z,99325.06
2019-05-23T23:20:59.575Z,99321.52
2019-05-23T23:23:20.280Z,99319.85
2019-05-23T23:25:41.539Z,99315.80
2019-05-23T23:28:02.725Z,99316.33
2019-05-23T23:30:23.689Z,99317.38
2019-05-23T23:32:44.807Z,99315.22
2019-05-23T23:35:05.488Z,99315.22
2019-05-23T23:37:25.771Z,99313.56
2019-05-23T23:39:46.684Z,99314.61
2019-05-23T23:42:07.561Z,99307.84
2019-05-23T23:44:28.408Z,99310.01
2019-05-23T23:46:49.723Z,99307.00
2019-05-23T23:49:10.830Z,99304.83
2019-05-23T23:51:31.668Z,99303.14
2019-05-23T23:53:52.141Z,99304.50
2019-05-23T23:56:12.643Z,99303.38
2019-05-23T23:58:34.009Z,99300.67
